Time;durP1;ratioP1;P1;durP2;ratioP2;P2;SDS_P1;SDS_P2;PMS_P1;PMS_P2;Temp;Humidity;BMP_temperature;BMP_pressure;BME280_temperature;BME280_humidity;BME280_pressure;Samples;Min_cycle;Max_cycle;Signal;HPM_P1;HPM_P2
2023/02/02 00:01:50;;;;;;;1999.90;999.90;;;;;;;-1.08;100.00;98037.03;5073970;28;20033;-77
2023/02/02 00:04:30;;;;;;;1999.90;999.90;;;;;;;-1.21;100.00;98026.41;5073787;28;20154;-79
2023/02/02 00:06:56;;;;;;;1999.90;999.90;;;;;;;-1.15;100.00;98035.41;5074040;28;20032;-77
2023/02/02 00:09:23;;;;;;;1999.90;999.90;;;;;;;-1.27;100.00;98021.06;5073725;28;20094;-76
2023/02/02 00:11:49;;;;;;;1999.90;999.90;;;;;;;-1.41;100.00;98020.34;5073719;28;20024;-76
2023/02/02 00:14:15;;;;;;;1999.90;999.90;;;;;;;-1.38;100.00;98016.44;5073590;28;20102;-78
2023/02/02 00:16:42;;;;;;;1999.90;999.90;;;;;;;-1.36;100.00;98022.38;5073736;28;20477;-77
2023/02/02 00:19:14;;;;;;;1999.90;999.90;;;;;;;-1.31;100.00;98039.47;5074333;28;20485;-76
2023/02/02 00:21:39;;;;;;;1999.90;999.90;;;;;;;-1.27;100.00;98037.16;5075133;28;20032;-79
2023/02/02 00:24:06;;;;;;;1999.90;999.90;;;;;;;-1.42;100.00;98032.13;5073609;28;20026;-77
2023/02/02 00:26:32;;;;;;;1999.90;999.90;;;;;;;-1.37;100.00;98034.16;5073234;28;20032;-79
2023/02/02 00:28:57;;;;;;;1999.90;999.90;;;;;;;-1.35;100.00;98048.19;5073460;28;20430;-79
2023/02/02 00:31:23;;;;;;;1999.90;999.90;;;;;;;-1.35;100.00;98032.91;5073356;28;20016;-80
2023/02/02 00:33:49;;;;;;;1999.90;999.90;;;;;;;-1.45;100.00;98045.97;5073320;28;20040;-78
2023/02/02 00:36:15;;;;;;;1999.90;999.90;;;;;;;-1.45;100.00;98053.19;5073471;28;20029;-76
2023/02/02 00:38:41;;;;;;;1999.90;999.90;;;;;;;-1.46;100.00;98047.00;5073190;28;20028;-78
2023/02/02 00:41:07;;;;;;;1999.90;999.90;;;;;;;-1.49;100.00;98043.94;5071713;28;20108;-77
2023/02/02 00:43:34;;;;;;;1999.90;999.90;;;;;;;-1.48;100.00;98054.47;5073117;28;20115;-76
2023/02/02 00:46:00;;;;;;;1999.90;999.90;;;;;;;-1.47;100.00;98045.34;5071831;28;20027;-78
2023/02/02 00:48:25;;;;;;;1999.90;999.90;;;;;;;-1.45;100.00;98050.50;5073494;28;20032;-77
2023/02/02 00:50:52;;;;;;;1999.90;999.90;;;;;;;-1.64;100.00;98028.16;5073150;28;20174;-77
2023/02/02 00:53:17;;;;;;;1999.90;999.90;;;;;;;-1.62;100.00;98039.47;5072974;28;20448;-77
2023/02/02 00:55:43;;;;;;;1999.90;999.90;;;;;;;-1.71;100.00;98036.22;5081661;28;20169;-78
2023/02/02 00:58:09;;;;;;;1999.90;999.90;;;;;;;-1.66;100.00;98030.25;5093186;28;20031;-77
2023/02/02 01:00:34;;;;;;;1999.90;999.90;;;;;;;-1.65;100.00;98029.19;5093415;28;20023;-77
2023/02/02 01:03:03;;;;;;;1999.90;999.90;;;;;;;-1.65;100.00;98039.91;5093090;28;20496;-76
2023/02/02 01:05:33;;;;;;;1999.90;999.90;;;;;;;-1.63;100.00;98043.22;5093269;28;20388;-77
2023/02/02 01:07:59;;;;;;;1999.90;999.90;;;;;;;-1.79;100.00;98033.00;5092726;28;20016;-78
2023/02/02 01:10:25;;;;;;;1999.90;999.90;;;;;;;-1.60;100.00;98048.16;5092944;28;20505;-77
2023/02/02 01:12:51;;;;;;;1999.90;999.90;;;;;;;-1.68;100.00;98045.69;5093272;28;20035;-79
2023/02/02 01:15:16;;;;;;;1999.90;999.90;;;;;;;-1.70;100.00;98051.28;5097518;28;20036;-80
2023/02/02 01:17:42;;;;;;;1999.90;999.90;;;;;;;-1.75;100.00;98037.69;5097719;28;20024;-77
2023/02/02 01:20:14;;;;;;;1999.90;999.90;;;;;;;-1.86;100.00;98046.44;5097067;28;20028;-77
2023/02/02 01:22:40;;;;;;;1999.90;999.90;;;;;;;-1.79;100.00;98046.41;5092855;28;20034;-78
2023/02/02 01:25:05;;;;;;;1999.90;999.90;;;;;;;-1.81;100.00;98033.19;5092972;28;20100;-79
2023/02/02 01:27:31;;;;;;;1999.90;999.90;;;;;;;-1.88;100.00;98034.28;5092821;28;20062;-78
2023/02/02 01:29:56;;;;;;;1999.90;999.90;;;;;;;-1.78;100.00;98050.69;5092696;28;20058;-77
2023/02/02 01:32:21;;;;;;;1999.90;999.90;;;;;;;-1.83;100.00;98034.44;5092507;28;20098;-77
2023/02/02 01:34:47;;;;;;;1999.90;999.90;;;;;;;-1.92;100.00;98025.84;5092523;28;20028;-80
2023/02/02 01:37:12;;;;;;;1999.90;999.90;;;;;;;-1.95;100.00;98037.00;5092379;28;20439;-78
2023/02/02 01:39:37;;;;;;;1999.90;999.90;;;;;;;-1.83;100.00;98045.16;5092120;28;20043;-79
2023/02/02 01:42:13;;;;;;;1999.90;999.90;;;;;;;-1.91;100.00;97999.88;5082164;28;20035;-80
2023/02/02 01:45:13;;;;;;;1999.90;999.90;;;;;;;-1.99;100.00;98024.22;5091176;28;20067;-76
2023/02/02 01:47:43;;;;;;;1999.90;999.90;;;;;;;-1.96;100.00;98005.03;5092384;28;20069;-80
2023/02/02 01:50:12;;;;;;;1999.90;999.90;;;;;;;-1.99;100.00;98008.97;5095067;28;20058;-80
2023/02/02 01:52:40;;;;;;;1999.90;999.90;;;;;;;-2.01;100.00;98029.00;5092374;28;20020;-78
2023/02/02 01:55:09;;;;;;;1999.90;999.90;;;;;;;-1.91;100.00;98018.63;5092799;28;20480;-79
2023/02/02 01:57:49;;;;;;;1999.90;999.90;;;;;;;-1.97;100.00;98016.81;5092190;28;20078;-78
2023/02/02 02:00:17;;;;;;;1999.90;999.90;;;;;;;-1.88;100.00;98037.75;5092014;28;20028;-76
2023/02/02 02:02:48;;;;;;;1999.90;999.90;;;;;;;-1.94;100.00;98032.47;5092110;28;20031;-76
2023/02/02 02:05:19;;;;;;;1999.90;999.90;;;;;;;-1.92;100.00;98041.09;5091864;28;20027;-76
2023/02/02 02:07:49;;;;;;;1999.90;999.90;;;;;;;-2.04;100.00;98019.53;5091941;28;20032;-76
2023/02/02 02:10:16;;;;;;;1999.90;999.90;;;;;;;-2.02;100.00;98024.66;5090374;28;20048;-76
2023/02/02 02:12:41;;;;;;;1999.90;999.90;;;;;;;-2.13;100.00;98022.66;5091735;28;20103;-78
2023/02/02 02:18:04;;;;;;;1999.90;999.90;;;;;;;-2.17;100.00;98022.25;5091850;28;20035;-77
2023/02/02 02:26:53;;;;;;;1999.90;999.90;;;;;;;-2.31;100.00;98026.00;5091666;28;20054;-76
2023/02/02 02:29:31;;;;;;;1999.90;999.90;;;;;;;-2.30;100.00;98017.78;5091043;28;20055;-79
2023/02/02 02:32:27;;;;;;;1999.90;999.90;;;;;;;-2.29;100.00;98019.41;5091441;28;20027;-77
2023/02/02 02:35:01;;;;;;;1999.90;999.90;;;;;;;-2.23;100.00;98010.56;5091560;28;20028;-78
2023/02/02 02:38:04;;;;;;;1999.90;999.90;;;;;;;-2.20;100.00;98006.63;5091223;28;20043;-78
2023/02/02 02:40:36;;;;;;;1999.90;999.90;;;;;;;-2.15;100.00;98020.19;5074991;28;20423;-77
2023/02/02 02:43:08;;;;;;;1999.90;999.90;;;;;;;-2.26;100.00;98024.38;5091282;28;20024;-78
2023/02/02 02:45:35;;;;;;;1999.90;999.90;;;;;;;-2.27;100.00;98020.03;5091103;28;20035;-79
2023/02/02 02:48:02;;;;;;;1999.90;999.90;;;;;;;-2.26;100.00;98019.00;5091318;28;20020;-79
2023/02/02 02:50:27;;;;;;;1999.90;999.90;;;;;;;-2.24;100.00;98011.56;5091260;28;20111;-77
2023/02/02 02:53:04;;;;;;;1999.90;999.90;;;;;;;-2.20;100.00;98018.16;5090970;28;20107;-78
2023/02/02 02:56:03;;;;;;;1999.90;999.90;;;;;;;-2.20;100.00;98017.34;5091231;28;20517;-77
2023/02/02 02:58:47;;;;;;;1999.90;999.90;;;;;;;-2.11;100.00;98021.41;5090325;28;20492;-77
2023/02/02 03:01:39;;;;;;;1999.90;999.90;;;;;;;-2.23;100.00;98007.88;5090830;28;20508;-78
2023/02/02 03:04:21;;;;;;;1999.90;999.90;;;;;;;-2.24;100.00;98000.88;5090694;28;20036;-78
2023/02/02 03:06:55;;;;;;;1999.90;999.90;;;;;;;-2.30;100.00;98009.75;5091100;28;20039;-79
2023/02/02 03:09:24;;;;;;;1999.90;999.90;;;;;;;-2.26;100.00;98008.31;5089229;28;20048;-77
2023/02/02 03:11:50;;;;;;;1999.90;999.90;;;;;;;-2.33;100.00;97993.28;5090911;28;20352;-78
2023/02/02 03:14:15;;;;;;;1999.90;999.90;;;;;;;-2.44;100.00;98000.09;5090974;28;20020;-77
2023/02/02 03:16:40;;;;;;;1999.90;999.90;;;;;;;-2.39;100.00;98008.34;5090422;28;20055;-77
2023/02/02 03:19:07;;;;;;;1999.90;999.90;;;;;;;-2.42;100.00;98018.66;5086361;28;20031;-76
2023/02/02 03:21:33;;;;;;;1999.90;999.90;;;;;;;-2.32;100.00;98013.69;5088969;28;20062;-77
2023/02/02 03:23:59;;;;;;;1999.90;999.90;;;;;;;-2.38;100.00;98015.31;5089993;28;20024;-77
2023/02/02 03:26:25;;;;;;;1999.90;999.90;;;;;;;-2.47;100.00;98003.22;5090227;28;20485;-76
2023/02/02 03:28:52;;;;;;;1999.90;999.90;;;;;;;-2.40;100.00;98001.34;5089518;28;20032;-76
2023/02/02 03:31:18;;;;;;;1999.90;999.90;;;;;;;-2.37;100.00;98022.34;5090749;28;20089;-76
2023/02/02 03:33:43;;;;;;;1999.90;999.90;;;;;;;-2.44;100.00;98010.81;5090574;28;20781;-80
2023/02/02 03:36:09;;;;;;;1999.90;999.90;;;;;;;-2.54;100.00;98010.47;5090642;28;20012;-82
2023/02/02 03:38:34;;;;;;;1999.90;999.90;;;;;;;-2.46;100.00;98012.91;5090949;28;20089;-80
2023/02/02 03:41:00;;;;;;;1999.90;999.90;;;;;;;-2.45;100.00;98006.53;5090771;28;20399;-77
2023/02/02 03:43:25;;;;;;;1999.90;999.90;;;;;;;-2.52;100.00;98002.22;5090497;28;20028;-77
2023/02/02 03:45:58;;;;;;;1999.90;999.90;;;;;;;-2.56;100.00;98012.50;5090830;28;20024;-78
2023/02/02 03:48:23;;;;;;;1999.90;999.90;;;;;;;-2.56;100.00;98012.50;5090912;28;20059;-77
2023/02/02 03:50:49;;;;;;;1999.90;999.90;;;;;;;-2.67;100.00;98025.72;5091028;28;20052;-80
2023/02/02 03:53:14;;;;;;;1999.90;999.90;;;;;;;-2.68;100.00;98016.88;5090556;28;20066;-78
2023/02/02 03:55:40;;;;;;;1999.90;999.90;;;;;;;-2.83;100.00;98009.09;5090451;28;20115;-78
2023/02/02 03:58:05;;;;;;;1999.90;999.90;;;;;;;-2.71;100.00;98022.66;5090241;28;20081;-78
2023/02/02 04:00:31;;;;;;;1999.90;999.90;;;;;;;-2.56;100.00;98022.38;5091151;28;20426;-76
2023/02/02 04:02:56;;;;;;;1999.90;999.90;;;;;;;-2.80;100.00;97997.97;5091287;28;20024;-79
2023/02/02 04:05:21;;;;;;;1999.90;999.90;;;;;;;-2.79;100.00;98012.19;5090824;28;20442;-77
2023/02/02 04:07:48;;;;;;;1999.90;999.90;;;;;;;-2.67;100.00;97990.94;5090218;28;20028;-76
2023/02/02 04:10:13;;;;;;;1999.90;999.90;;;;;;;-2.59;100.00;97991.53;5090410;28;20066;-78
2023/02/02 04:12:38;;;;;;;1999.90;999.90;;;;;;;-2.64;100.00;97999.38;5090117;28;20049;-77
2023/02/02 04:15:05;;;;;;;1999.90;999.90;;;;;;;-2.62;100.00;98008.00;5090018;28;20468;-77
2023/02/02 04:17:30;;;;;;;1999.90;999.90;;;;;;;-2.73;100.00;98012.16;5090214;28;20145;-77
2023/02/02 04:19:57;;;;;;;1999.90;999.90;;;;;;;-2.80;100.00;98013.19;5090164;28;20491;-76
2023/02/02 04:22:23;;;;;;;1999.90;999.90;;;;;;;-2.81;100.00;98014.22;5090271;28;20073;-76
2023/02/02 04:24:48;;;;;;;1999.90;999.90;;;;;;;-2.89;100.00;98006.44;5090017;28;20073;-77
2023/02/02 04:27:14;;;;;;;1999.90;999.90;;;;;;;-2.88;100.00;98003.53;5089911;28;20370;-77
2023/02/02 04:29:39;;;;;;;1999.90;999.90;;;;;;;-2.85;100.00;98005.00;5090764;28;20073;-79
2023/02/02 04:32:05;;;;;;;1999.90;999.90;;;;;;;-2.92;100.00;98002.31;5093601;28;20020;-76
2023/02/02 04:34:30;;;;;;;1999.90;999.90;;;;;;;-2.87;100.00;97990.97;5093477;28;20376;-75
2023/02/02 04:36:56;;;;;;;1999.90;999.90;;;;;;;-2.94;100.00;97990.16;5093699;28;20035;-78
2023/02/02 04:39:21;;;;;;;1999.90;999.90;;;;;;;-2.91;100.00;97992.41;5093498;28;20111;-77
2023/02/02 04:41:46;;;;;;;1999.90;999.90;;;;;;;-2.96;100.00;97994.91;5093603;28;20048;-79
2023/02/02 04:44:14;;;;;;;1999.90;999.90;;;;;;;-2.76;100.00;98001.06;5095553;28;20046;-77
2023/02/02 04:46:41;;;;;;;1999.90;999.90;;;;;;;-2.91;100.00;97998.59;5095149;28;20040;-78
2023/02/02 04:49:08;;;;;;;1999.90;999.90;;;;;;;-2.83;100.00;98005.59;5093767;28;20093;-77
2023/02/02 04:51:34;;;;;;;1999.90;999.90;;;;;;;-2.95;100.00;97997.41;5091134;28;20039;-78
2023/02/02 04:53:59;;;;;;;1999.90;999.90;;;;;;;-2.92;100.00;98005.00;5093149;28;20028;-79
2023/02/02 04:56:24;;;;;;;1999.90;999.90;;;;;;;-3.06;100.00;97995.34;5094856;28;20039;-83
2023/02/02 04:58:52;;;;;;;1999.90;999.90;;;;;;;-3.00;100.00;97997.19;5096428;28;20039;-82
2023/02/02 05:01:19;;;;;;;1999.90;999.90;;;;;;;-2.87;100.00;98001.69;5097462;28;20039;-83
2023/02/02 05:03:45;;;;;;;1999.90;999.90;;;;;;;-2.97;100.00;98018.16;5084590;28;20028;-83
2023/02/02 05:06:11;;;;;;;1999.90;999.90;;;;;;;-2.87;100.00;98033.78;5094799;28;20056;-81
2023/02/02 05:08:37;;;;;;;1999.90;999.90;;;;;;;-2.98;100.00;98024.56;5095820;28;20036;-82
2023/02/02 05:11:08;;;;;;;1999.90;999.90;;;;;;;-3.13;100.00;98018.59;5095401;28;20085;-84
2023/02/02 05:13:33;;;;;;;1999.90;999.90;;;;;;;-2.99;100.00;98022.06;5095886;28;20036;-84
2023/02/02 05:15:59;;;;;;;1999.90;999.90;;;;;;;-2.99;100.00;98022.06;5096328;28;20083;-83
2023/02/02 05:18:24;;;;;;;1999.90;999.90;;;;;;;-3.00;100.00;98004.38;5086066;28;20041;-83
2023/02/02 05:20:51;;;;;;;1999.90;999.90;;;;;;;-2.92;100.00;98006.84;5076919;28;20031;-82
2023/02/02 05:23:16;;;;;;;1999.90;999.90;;;;;;;-2.96;100.00;98006.44;5075339;28;20081;-84
2023/02/02 05:25:42;;;;;;;1999.90;999.90;;;;;;;-2.87;100.00;98010.53;5075277;28;20025;-81
2023/02/02 05:28:07;;;;;;;1999.90;999.90;;;;;;;-3.04;100.00;98005.84;5075140;28;20031;-82
2023/02/02 05:30:32;;;;;;;1999.90;999.90;;;;;;;-3.04;100.00;98028.06;5078847;28;20028;-83
2023/02/02 05:32:58;;;;;;;1999.90;999.90;;;;;;;-3.12;100.00;98024.75;5095793;28;20024;-84
2023/02/02 05:35:23;;;;;;;1999.90;999.90;;;;;;;-3.16;100.00;98010.97;5095384;28;20087;-82
2023/02/02 05:37:48;;;;;;;1999.90;999.90;;;;;;;-3.13;100.00;98031.97;5095430;28;20032;-82
2023/02/02 05:40:14;;;;;;;1999.90;999.90;;;;;;;-3.14;100.00;98019.63;5094718;28;20077;-83
2023/02/02 05:42:39;;;;;;;1999.90;999.90;;;;;;;-3.10;100.00;98030.75;5093865;28;20089;-81
2023/02/02 05:45:05;;;;;;;1999.90;999.90;;;;;;;-3.13;100.00;98028.47;5094944;28;20050;-84
2023/02/02 05:47:30;;;;;;;1999.90;999.90;;;;;;;-3.10;100.00;98031.53;5090851;28;20028;-81
2023/02/02 05:49:56;;;;;;;1999.90;999.90;;;;;;;-3.06;100.00;98023.94;5093230;28;20032;-79
2023/02/02 05:52:23;;;;;;;1999.90;999.90;;;;;;;-3.18;100.00;98020.25;5093689;28;20039;-81
2023/02/02 05:54:49;;;;;;;1999.90;999.90;;;;;;;-3.16;100.00;98032.38;5094552;28;20059;-75
2023/02/02 05:57:14;;;;;;;1999.90;999.90;;;;;;;-3.18;100.00;98017.56;5092429;28;20166;-76
2023/02/02 05:59:40;;;;;;;1999.90;999.90;;;;;;;-3.11;100.00;98023.75;5090197;28;20480;-76
2023/02/02 06:02:05;;;;;;;1999.90;999.90;;;;;;;-3.04;100.00;98011.19;5091547;28;20747;-76
2023/02/02 06:04:30;;;;;;;1999.90;999.90;;;;;;;-3.16;100.00;98026.22;5095957;28;20107;-75
2023/02/02 06:06:56;;;;;;;1999.90;999.90;;;;;;;-3.09;100.00;98027.84;5091728;28;20066;-78
2023/02/02 06:09:22;;;;;;;1999.90;999.90;;;;;;;-3.08;100.00;98034.03;5085033;28;20460;-75
2023/02/02 06:11:48;;;;;;;1999.90;999.90;;;;;;;-3.05;100.00;98036.28;5093168;28;20026;-79
2023/02/02 06:14:20;;;;;;;1999.90;999.90;;;;;;;-3.04;100.00;98029.91;5096531;28;20441;-80
2023/02/02 06:16:46;;;;;;;1999.90;999.90;;;;;;;-3.18;100.00;98022.91;5086120;28;20032;-81
2023/02/02 06:19:11;;;;;;;1999.90;999.90;;;;;;;-3.11;100.00;98027.25;5088104;28;20043;-83
2023/02/02 06:21:36;;;;;;;1999.90;999.90;;;;;;;-3.04;100.00;98025.41;5089217;28;20028;-85
2023/02/02 06:24:02;;;;;;;1999.90;999.90;;;;;;;-2.97;100.00;98020.00;5098129;28;20058;-84
2023/02/02 06:26:27;;;;;;;1999.90;999.90;;;;;;;-3.09;100.00;98032.38;5098760;28;20031;-83
2023/02/02 06:28:56;;;;;;;1999.90;999.90;;;;;;;-2.99;100.00;98030.09;5103206;28;20032;-81
2023/02/02 06:31:22;;;;;;;1999.90;999.90;;;;;;;-2.93;100.00;98042.66;5105967;28;20028;-81
2023/02/02 06:33:53;;;;;;;1999.90;999.90;;;;;;;-2.99;100.00;98038.13;5098047;28;20020;-80
2023/02/02 06:36:18;;;;;;;1999.90;999.90;;;;;;;-3.16;100.00;98036.91;5095494;28;20043;-83
2023/02/02 06:38:48;;;;;;;1999.90;999.90;;;;;;;-2.84;100.00;98033.38;5083557;28;20033;-83
2023/02/02 06:41:13;;;;;;;1999.90;999.90;;;;;;;-2.62;100.00;98041.97;5073532;28;20405;-79
2023/02/02 06:43:38;;;;;;;1999.90;999.90;;;;;;;-2.59;100.00;98054.94;5086209;28;20032;-81
2023/02/02 06:46:04;;;;;;;1999.90;999.90;;;;;;;-2.28;100.00;98047.84;5094795;28;20549;-80
2023/02/02 06:48:29;;;;;;;1999.90;999.90;;;;;;;-1.99;100.00;98070.59;5095109;28;20039;-83
2023/02/02 06:50:59;;;;;;;1999.90;999.90;;;;;;;-1.73;100.00;98072.34;5096358;28;20073;-84
2023/02/02 06:53:25;;;;;;;1999.90;999.90;;;;;;;-1.51;100.00;98062.94;5109697;28;20099;-83
2023/02/02 06:56:04;;;;;;;1999.90;999.90;;;;;;;-1.34;100.00;98066.72;5105032;28;20481;-84
2023/02/02 06:58:31;;;;;;;1999.90;999.90;;;;;;;-1.37;100.00;98085.94;5089497;28;20055;-82
2023/02/02 07:01:13;;;;;;;1999.90;999.90;;;;;;;-1.55;100.00;98069.75;5090659;28;20031;-82
2023/02/02 07:03:39;;;;;;;1999.90;999.90;;;;;;;-1.53;100.00;98083.75;5089480;28;20118;-84
2023/02/02 07:06:18;;;;;;;1999.90;999.90;;;;;;;-1.36;100.00;98094.81;5096700;28;20032;-82
2023/02/02 07:08:44;;;;;;;1999.90;999.90;;;;;;;-1.34;100.00;98077.44;5102370;28;20101;-83
2023/02/02 07:11:10;;;;;;;1999.90;999.90;;;;;;;-1.09;100.00;98086.34;5092075;28;20024;-81
2023/02/02 07:13:35;;;;;;;1999.90;999.90;;;;;;;-0.75;100.00;98076.19;5090191;28;20439;-85
2023/02/02 07:16:03;;;;;;;1999.90;999.90;;;;;;;-0.17;100.00;98077.44;5083379;28;20104;-84
2023/02/02 07:18:29;;;;;;;1999.90;999.90;;;;;;;0.70;100.00;98081.47;5071648;28;20037;-81
2023/02/02 07:20:58;;;;;;;1999.90;999.90;;;;;;;1.12;100.00;98066.13;5072583;28;20029;-83
2023/02/02 07:23:24;;;;;;;1999.90;999.90;;;;;;;1.21;100.00;98045.06;5071615;28;20028;-83
2023/02/02 07:25:58;;;;;;;1999.90;999.90;;;;;;;1.48;100.00;98082.06;5072540;28;20070;-86
2023/02/02 07:28:23;;;;;;;1999.90;999.90;;;;;;;1.52;100.00;98085.94;5091677;28;20476;-82
2023/02/02 07:30:49;;;;;;;1999.90;999.90;;;;;;;1.75;100.00;98090.50;5091373;28;20030;-81
2023/02/02 07:33:14;;;;;;;1999.90;999.90;;;;;;;2.26;100.00;98113.16;5091762;28;20039;-83
2023/02/02 07:35:40;;;;;;;1999.90;999.90;;;;;;;2.42;100.00;98102.44;5092818;28;20028;-84
2023/02/02 07:38:05;;;;;;;1999.90;999.90;;;;;;;2.22;100.00;98099.34;5094082;28;20533;-82
2023/02/02 07:40:30;;;;;;;1999.90;999.90;;;;;;;2.84;100.00;98104.88;5094716;28;20024;-82
2023/02/02 07:42:59;;;;;;;1999.90;999.90;;;;;;;3.24;100.00;98106.41;5082227;28;20024;-86
2023/02/02 07:45:24;;;;;;;1999.90;999.90;;;;;;;4.13;100.00;98109.13;5088907;28;20020;-84
2023/02/02 07:47:56;;;;;;;1999.90;999.90;;;;;;;4.46;100.00;98121.72;5091383;28;20028;-81
2023/02/02 07:50:21;;;;;;;1999.90;999.90;;;;;;;4.18;100.00;98112.72;5090560;28;20111;-82
2023/02/02 07:52:46;;;;;;;1999.90;999.90;;;;;;;4.53;100.00;98108.81;5091302;28;20103;-81
2023/02/02 07:55:12;;;;;;;1999.90;999.90;;;;;;;4.24;100.00;98090.03;5092329;28;20495;-83
2023/02/02 07:57:37;;;;;;;1999.90;999.90;;;;;;;4.43;100.00;98089.72;5092704;28;20016;-81
2023/02/02 08:00:03;;;;;;;1999.90;999.90;;;;;;;5.43;100.00;98102.66;5091225;28;20472;-85
2023/02/02 08:02:28;;;;;;;1999.90;999.90;;;;;;;6.08;100.00;98114.03;5092025;28;20380;-81
2023/02/02 08:04:54;;;;;;;1999.90;999.90;;;;;;;5.96;96.31;98118.03;5094944;28;20024;-81
2023/02/02 08:07:23;;;;;;;1999.90;999.90;;;;;;;5.98;93.74;98116.72;5097725;28;20062;-84
2023/02/02 08:09:49;;;;;;;1999.90;999.90;;;;;;;6.13;91.82;98141.22;5081263;28;20062;-82
2023/02/02 08:12:14;;;;;;;1999.90;999.90;;;;;;;6.13;90.69;98132.25;5096435;28;20615;-85
2023/02/02 08:14:40;;;;;;;1999.90;999.90;;;;;;;6.59;88.59;98136.03;5104549;28;20024;-86
2023/02/02 08:17:05;;;;;;;1999.90;999.90;;;;;;;7.36;84.91;98127.84;5098845;28;20106;-87
2023/02/02 08:19:31;;;;;;;1999.90;999.90;;;;;;;7.86;79.78;98105.25;5096527;28;20074;-85
2023/02/02 08:21:56;;;;;;;1999.90;999.90;;;;;;;7.95;80.22;98117.22;5095622;28;20381;-84
2023/02/02 08:24:21;;;;;;;1999.90;999.90;;;;;;;8.23;78.23;98118.53;5096086;28;20065;-86
2023/02/02 08:26:47;;;;;;;1999.90;999.90;;;;;;;7.50;80.17;98107.16;5095166;28;20074;-90
2023/02/02 08:29:16;;;;;;;1999.90;999.90;;;;;;;8.13;77.66;98104.91;5095760;28;20027;-87
2023/02/02 08:31:43;;;;;;;1999.90;999.90;;;;;;;8.34;74.84;98120.16;5096499;28;20042;-82
2023/02/02 08:34:10;;;;;;;1999.90;999.90;;;;;;;8.77;71.40;98132.28;5096197;28;20024;-88
2023/02/02 08:36:36;;;;;;;1999.90;999.90;;;;;;;8.91;69.53;98131.41;5099539;28;20036;-88
2023/02/02 08:39:05;;;;;;;1999.90;999.90;;;;;;;9.58;65.79;98149.03;5097944;28;20799;-88
2023/02/02 08:41:31;;;;;;;1999.90;999.90;;;;;;;10.44;62.64;98134.59;5099717;28;20028;-85
2023/02/02 08:43:56;;;;;;;1999.90;999.90;;;;;;;10.26;62.40;98133.44;5100108;28;20024;-86
2023/02/02 08:46:22;;;;;;;1999.90;999.90;;;;;;;10.06;62.23;98139.03;5102658;28;20484;-85
2023/02/02 08:48:48;;;;;;;1999.90;999.90;;;;;;;9.88;64.56;98139.75;5100920;28;20032;-88
2023/02/02 08:51:17;;;;;;;1999.90;999.90;;;;;;;10.42;62.43;98142.28;5100785;28;20020;-85
2023/02/02 08:53:42;;;;;;;1999.90;999.90;;;;;;;10.61;62.75;98145.91;5100983;28;20031;-83
2023/02/02 08:56:12;;;;;;;1999.90;999.90;;;;;;;9.90;63.81;98156.69;5080570;28;20391;-85
2023/02/02 08:58:38;;;;;;;1999.90;999.90;;;;;;;10.39;64.60;98151.06;5082041;28;20021;-86
2023/02/02 09:01:05;;;;;;;1999.90;999.90;;;;;;;10.54;62.12;98168.13;5077684;28;20469;-89
2023/02/02 09:03:30;;;;;;;1999.90;999.90;;;;;;;10.19;64.16;98152.06;5076277;28;20028;-86
2023/02/02 09:05:56;;;;;;;1999.90;999.90;;;;;;;11.22;60.77;98156.91;5078703;28;20415;-86
2023/02/02 09:08:21;;;;;;;1999.90;999.90;;;;;;;11.50;58.93;98163.34;5077807;28;20021;-85
2023/02/02 09:10:46;;;;;;;1999.90;999.90;;;;;;;10.82;61.11;98163.72;5082810;28;20548;-90
2023/02/02 09:13:12;;;;;;;1999.90;999.90;;;;;;;10.27;62.62;98143.28;5083279;28;20028;-88
2023/02/02 09:15:37;;;;;;;1999.90;999.90;;;;;;;10.33;64.01;98158.53;5089078;28;20127;-88
2023/02/02 09:18:03;;;;;;;1999.90;999.90;;;;;;;10.94;60.62;98166.84;5105010;28;20028;-86
2023/02/02 09:20:28;;;;;;;1999.90;999.90;;;;;;;11.83;57.72;98162.34;5103626;28;20035;-87
2023/02/02 09:22:55;;;;;;;1999.90;999.90;;;;;;;11.57;59.20;98158.34;5102499;28;20031;-86
2023/02/02 09:25:20;;;;;;;1999.90;999.90;;;;;;;11.12;60.68;98170.75;5094396;28;20029;-88
2023/02/02 09:27:45;;;;;;;1999.90;999.90;;;;;;;11.19;61.53;98160.22;5082774;28;20399;-86
2023/02/02 09:30:11;;;;;;;1999.90;999.90;;;;;;;11.76;58.43;98162.72;5078168;28;20029;-88
2023/02/02 09:32:37;;;;;;;1999.90;999.90;;;;;;;11.36;59.37;98157.81;5078189;28;20028;-88
2023/02/02 09:35:02;;;;;;;1999.90;999.90;;;;;;;11.35;59.36;98178.09;5080130;28;20021;-83
2023/02/02 09:37:28;;;;;;;1999.90;999.90;;;;;;;10.23;61.44;98177.75;5082561;28;20020;-84
2023/02/02 09:39:53;;;;;;;1999.90;999.90;;;;;;;11.34;60.10;98187.41;5084687;28;20508;-84
2023/02/02 09:42:34;;;;;;;1999.90;999.90;;;;;;;11.69;59.49;98194.31;5083914;28;20031;-84
2023/02/02 09:45:10;;;;;;;1999.90;999.90;;;;;;;12.18;57.81;98180.97;5083498;28;20036;-87
2023/02/02 09:47:42;;;;;;;1999.90;999.90;;;;;;;11.91;58.22;98202.78;5089174;28;20052;-88
2023/02/02 09:50:58;;;;;;;1999.90;999.90;;;;;;;12.31;57.38;98190.34;5086249;28;20020;-89
2023/02/02 09:53:49;;;;;;;1999.90;999.90;;;;;;;12.85;54.93;98198.66;5070501;28;20416;-88
2023/02/02 09:56:23;;;;;;;1999.90;999.90;;;;;;;12.50;56.13;98199.31;5076498;28;20477;-87
2023/02/02 09:58:52;;;;;;;1999.90;999.90;;;;;;;12.07;58.62;98200.63;5076290;28;20079;-84
2023/02/02 10:01:35;;;;;;;1999.90;999.90;;;;;;;11.97;59.31;98212.56;5074956;28;20043;-89
2023/02/02 10:04:18;;;;;;;1999.90;999.90;;;;;;;11.56;59.73;98211.53;5077434;28;20031;-89
2023/02/02 10:06:47;;;;;;;1999.90;999.90;;;;;;;12.51;58.76;98211.94;5081672;28;20032;-89
2023/02/02 10:09:38;;;;;;;1999.90;999.90;;;;;;;11.97;59.07;98217.22;5091054;28;20047;-83
2023/02/02 10:12:25;;;;;;;1999.90;999.90;;;;;;;11.83;59.43;98181.53;5092953;28;20432;-77
2023/02/02 10:15:00;;;;;;;1999.90;999.90;;;;;;;11.87;59.31;98207.25;5094252;28;20024;-87
2023/02/02 10:17:53;;;;;;;1999.90;999.90;;;;;;;12.90;56.70;98214.25;5093632;28;20073;-87
2023/02/02 10:20:53;;;;;;;1999.90;999.90;;;;;;;13.08;56.21;98226.25;5073009;28;20095;-88
2023/02/02 10:23:37;;;;;;;1999.90;999.90;;;;;;;10.69;62.07;98222.69;5072264;28;20115;-87
2023/02/02 10:26:22;;;;;;;1999.90;999.90;;;;;;;11.39;61.91;98212.00;5074004;28;20440;-86
2023/02/02 10:28:50;;;;;;;1999.90;999.90;;;;;;;11.57;62.01;98219.44;5072646;28;20404;-89
2023/02/02 10:31:38;;;;;;;1999.90;999.90;;;;;;;11.68;60.74;98201.72;5073835;28;20020;-86
2023/02/02 10:34:13;;;;;;;1999.90;999.90;;;;;;;11.38;63.06;98204.06;5077557;28;20033;-84
2023/02/02 10:37:00;;;;;;;1999.90;999.90;;;;;;;12.29;58.72;98204.34;5075473;28;20352;-90
2023/02/02 10:39:44;;;;;;;1999.90;999.90;;;;;;;12.27;58.57;98219.50;5072712;28;20048;-86
2023/02/02 10:42:44;;;;;;;1999.90;999.90;;;;;;;11.51;61.26;98219.78;5075924;28;20031;-87
2023/02/02 10:45:20;;;;;;;1999.90;999.90;;;;;;;12.37;57.85;98211.09;5064987;28;20040;-90
2023/02/02 10:47:45;;;;;;;1999.90;999.90;;;;;;;12.52;57.08;98201.78;5072368;28;20154;-83
2023/02/02 10:50:11;;;;;;;1999.90;999.90;;;;;;;12.77;56.18;98224.09;5071585;28;20036;-81
2023/02/02 10:52:39;;;;;;;1999.90;999.90;;;;;;;12.71;55.64;98210.75;5081467;28;20459;-87
2023/02/02 10:55:24;;;;;;;1999.90;999.90;;;;;;;12.72;56.43;98224.16;5084488;28;20438;-78
2023/02/02 10:58:09;;;;;;;1999.90;999.90;;;;;;;12.46;56.38;98219.44;5069335;28;20053;-79
2023/02/02 11:00:45;;;;;;;;;;;;;;;12.00;56.50;98216.63;5080624;28;20032;-84
2023/02/02 11:03:13;;;;;;;1999.90;999.90;;;;;;;11.20;60.26;98198.28;5093035;28;20019;-86
2023/02/02 11:08:28;;;;;;;1999.90;999.90;;;;;;;12.14;58.49;98198.31;5073066;28;20039;-85
2023/02/02 11:10:55;;;;;;;1999.90;999.90;;;;;;;12.50;56.01;98204.81;5077585;28;20032;-83